Time;durP1;ratioP1;P1;durP2;ratioP2;P2;SDS_P1;SDS_P2;PMS_P1;PMS_P2;Temp;Humidity;BMP_temperature;BMP_pressure;BME280_temperature;BME280_humidity;BME280_pressure;Samples;Min_cycle;Max_cycle;Signal;HPM_P1;HPM_P2
2021/12/06 00:01:10;;;;;;;3.63;3.13;;;20.30;48.90;;;;;;4950136;28;20813;-60
2021/12/06 00:03:59;;;;;;;3.55;3.25;;;20.40;48.80;;;;;;4971222;28;20464;-60
2021/12/06 00:06:27;;;;;;;3.60;3.17;;;20.40;48.70;;;;;;4960543;28;20038;-60
2021/12/06 00:08:53;;;;;;;4.22;3.53;;;20.30;48.80;;;;;;4970111;28;20085;-59
2021/12/06 00:11:19;;;;;;;5.40;3.60;;;20.30;48.80;;;;;;4953660;28;20129;-60
2021/12/06 00:13:47;;;;;;;3.92;3.30;;;20.30;48.70;;;;;;4972418;28;20046;-61
2021/12/06 00:16:18;;;;;;;3.60;3.30;;;20.30;48.60;;;;;;4952141;28;20046;-59
2021/12/06 00:18:46;;;;;;;3.55;3.25;;;20.30;48.60;;;;;;4969944;28;20085;-60
2021/12/06 00:21:12;;;;;;;5.03;3.80;;;20.30;48.60;;;;;;4948584;28;20062;-56
2021/12/06 00:23:39;;;;;;;4.05;3.65;;;20.30;48.50;;;;;;4968901;28;20804;-61
2021/12/06 00:26:06;;;;;;;4.15;3.75;;;20.30;48.40;;;;;;4945882;28;20399;-59
2021/12/06 00:28:32;;;;;;;4.30;3.75;;;20.30;48.40;;;;;;4974237;28;20100;-60
2021/12/06 00:30:58;;;;;;;4.22;3.33;;;20.30;48.30;;;;;;4950194;28;20053;-60
2021/12/06 00:33:25;;;;;;;4.25;3.85;;;20.30;48.40;;;;;;4970543;28;20051;-59
2021/12/06 00:35:51;;;;;;;5.28;3.53;;;20.30;48.30;;;;;;4944334;28;20763;-61
2021/12/06 00:38:17;;;;;;;4.70;3.72;;;20.20;48.20;;;;;;4976596;28;20125;-61
2021/12/06 00:40:47;;;;;;;3.97;3.50;;;20.30;48.30;;;;;;4966646;28;20057;-56
2021/12/06 00:43:14;;;;;;;4.72;3.78;;;20.30;48.30;;;;;;4967313;28;20046;-60
2021/12/06 00:45:41;;;;;;;4.22;3.78;;;20.20;48.10;;;;;;4970726;28;20424;-60
2021/12/06 00:48:07;;;;;;;3.92;3.63;;;20.20;48.10;;;;;;4954381;28;20137;-59
2021/12/06 00:50:35;;;;;;;4.47;3.78;;;20.20;48.10;;;;;;4966358;28;20050;-59
2021/12/06 00:53:01;;;;;;;4.05;3.65;;;20.20;48.10;;;;;;4952638;28;20054;-59
2021/12/06 00:55:27;;;;;;;4.50;3.75;;;20.20;48.00;;;;;;4971174;28;20058;-60
2021/12/06 00:57:53;;;;;;;4.53;4.13;;;20.20;48.40;;;;;;4971372;28;20097;-61
2021/12/06 01:00:24;;;;;;;4.00;3.60;;;20.20;48.00;;;;;;4948001;28;20050;-57
2021/12/06 01:02:50;;;;;;;4.32;3.92;;;20.20;48.00;;;;;;4971907;28;20058;-60
2021/12/06 01:05:17;;;;;;;5.18;3.97;;;20.20;48.00;;;;;;4966908;28;20050;-55
2021/12/06 01:07:43;;;;;;;3.92;3.63;;;20.10;48.00;;;;;;4944332;28;20450;-59
2021/12/06 01:10:09;;;;;;;4.93;4.53;;;20.20;48.00;;;;;;4969117;28;20055;-61
2021/12/06 01:12:35;;;;;;;4.25;3.85;;;20.10;48.60;;;;;;4951536;28;20445;-60
2021/12/06 01:15:01;;;;;;;4.32;3.92;;;20.20;47.90;;;;;;4971779;28;20181;-59
2021/12/06 01:17:26;;;;;;;4.32;3.92;;;20.10;47.90;;;;;;4950177;28;20050;-60
2021/12/06 01:19:53;;;;;;;4.30;3.90;;;20.10;47.80;;;;;;4966399;28;20054;-61
2021/12/06 01:23:04;;;;;;;4.88;3.72;;;20.10;47.80;;;;;;4953533;28;20042;-60
2021/12/06 01:25:19;;;;;;;8.13;4.60;;;20.10;47.80;;;;;;4974141;28;20240;-60
2021/12/06 01:30:49;;;;;;;4.45;4.05;;;20.10;47.70;;;;;;4973563;28;20054;-59
2021/12/06 01:41:35;;;;;;;4.35;3.97;;;20.10;48.00;;;;;;4969013;28;20513;-58
2021/12/06 01:44:13;;;;;;;4.78;4.35;;;20.10;48.00;;;;;;4952513;28;20046;-59
2021/12/06 01:46:56;;;;;;;5.15;4.65;;;20.10;48.00;;;;;;4966667;28;20043;-57
2021/12/06 01:49:24;;;;;;;5.18;4.68;;;20.00;48.00;;;;;;4953521;28;20054;-60
2021/12/06 01:51:52;;;;;;;4.72;4.30;;;20.00;48.10;;;;;;4970941;28;20038;-56
2021/12/06 01:54:19;;;;;;;4.80;4.40;;;20.00;48.10;;;;;;4949215;28;20047;-61
2021/12/06 01:56:47;;;;;;;5.40;4.22;;;20.00;48.10;;;;;;4972625;28;20510;-62
2021/12/06 01:59:13;;;;;;;5.15;4.63;;;20.00;48.10;;;;;;4967993;28;20042;-59
2021/12/06 02:01:39;;;;;;;4.47;4.07;;;20.00;48.10;;;;;;4956158;28;20053;-60
2021/12/06 02:04:05;;;;;;;4.32;4.00;;;20.00;48.10;;;;;;4952228;28;20055;-60
2021/12/06 02:06:31;;;;;;;5.20;4.72;;;20.00;48.10;;;;;;4971404;28;20138;-60
2021/12/06 02:08:57;;;;;;;4.95;4.43;;;20.00;48.10;;;;;;4948348;28;20398;-61
2021/12/06 02:11:25;;;;;;;4.65;4.20;;;20.00;48.10;;;;;;4971148;28;20275;-60
2021/12/06 02:14:01;;;;;;;4.50;4.10;;;20.00;48.00;;;;;;4948396;28;20140;-59
2021/12/06 02:16:38;;;;;;;4.97;4.47;;;20.00;48.10;;;;;;4969526;28;21004;-61
2021/12/06 02:19:05;;;;;;;4.80;4.38;;;19.90;47.90;;;;;;4946106;28;20066;-60
2021/12/06 02:21:39;;;;;;;7.20;5.13;;;20.00;48.00;;;;;;4970571;28;20436;-60
2021/12/06 02:24:08;;;;;;;4.90;4.50;;;19.90;47.70;;;;;;4949178;28;20053;-59
2021/12/06 02:26:36;;;;;;;6.05;4.25;;;19.90;47.70;;;;;;4974481;28;20046;-60
2021/12/06 02:29:02;;;;;;;5.38;4.88;;;19.90;47.80;;;;;;4968909;28;20625;-60
2021/12/06 02:31:28;;;;;;;5.20;4.70;;;19.90;47.80;;;;;;4956282;28;20082;-61
2021/12/06 02:33:54;;;;;;;4.63;4.22;;;19.90;47.70;;;;;;4974412;28;20074;-59
2021/12/06 02:36:21;;;;;;;5.30;4.80;;;20.00;47.80;;;;;;4953938;28;20039;-61
2021/12/06 02:38:48;;;;;;;5.28;4.78;;;19.90;47.70;;;;;;4974797;28;20046;-60
2021/12/06 02:41:14;;;;;;;5.72;5.22;;;19.90;47.70;;;;;;4954276;28;20043;-60
2021/12/06 02:43:41;;;;;;;5.10;4.55;;;19.90;47.60;;;;;;4971903;28;20054;-59
2021/12/06 02:46:07;;;;;;;5.00;4.50;;;19.90;47.70;;;;;;4954551;28;20046;-59
2021/12/06 02:48:33;;;;;;;5.95;5.35;;;19.90;47.60;;;;;;4972199;28;20049;-59
2021/12/06 02:51:01;;;;;;;6.00;5.40;;;19.90;47.60;;;;;;4954704;28;20078;-59
2021/12/06 02:53:29;;;;;;;5.85;5.35;;;19.90;47.50;;;;;;4974333;28;20058;-60
2021/12/06 02:55:59;;;;;;;5.20;4.70;;;19.90;47.50;;;;;;4954911;28;20621;-57
2021/12/06 03:01:10;;;;;;;6.32;5.53;;;19.90;47.40;;;;;;4946939;28;20062;-61
2021/12/06 03:03:36;;;;;;;7.03;5.40;;;19.90;47.40;;;;;;4969783;28;20050;-61
2021/12/06 03:06:03;;;;;;;4.75;4.32;;;19.80;47.40;;;;;;4951504;28;20129;-62
2021/12/06 03:08:47;;;;;;;5.55;5.03;;;19.90;47.50;;;;;;4971347;28;20364;-61
2021/12/06 03:11:20;;;;;;;6.00;5.35;;;19.90;47.30;;;;;;4949291;28;20043;-61
2021/12/06 03:13:46;;;;;;;5.50;5.00;;;19.80;47.30;;;;;;4970221;28;20119;-58
2021/12/06 03:16:17;;;;;;;6.25;5.20;;;19.80;47.40;;;;;;4972828;28;20568;-60
2021/12/06 03:18:45;;;;;;;6.22;4.88;;;19.80;47.30;;;;;;4968057;28;20129;-60
2021/12/06 03:21:12;;;;;;;5.90;5.40;;;19.80;47.30;;;;;;4967859;28;20050;-57
2021/12/06 03:23:38;;;;;;;5.28;4.78;;;19.80;47.30;;;;;;4955877;28;20061;-60
2021/12/06 03:26:05;;;;;;;5.88;5.30;;;19.80;47.20;;;;;;4969841;28;20047;-56
2021/12/06 03:28:39;;;;;;;6.05;5.28;;;19.80;47.20;;;;;;4952964;28;20513;-60
2021/12/06 03:31:06;;;;;;;5.97;5.30;;;19.80;47.10;;;;;;4973173;28;20129;-60
2021/12/06 03:33:35;;;;;;;6.95;4.82;;;19.80;47.10;;;;;;4951983;28;20038;-61
2021/12/06 03:36:04;;;;;;;6.60;5.32;;;19.80;47.10;;;;;;4971405;28;20129;-60
2021/12/06 03:38:30;;;;;;;5.88;5.15;;;19.80;47.10;;;;;;4951424;28;20126;-60
2021/12/06 03:40:55;;;;;;;5.65;5.00;;;19.80;47.10;;;;;;4969115;28;20095;-60
2021/12/06 03:43:21;;;;;;;5.20;4.75;;;19.70;47.00;;;;;;4949284;28;20054;-60
2021/12/06 03:45:46;;;;;;;8.02;4.75;;;19.70;47.00;;;;;;4972581;28;20077;-61
2021/12/06 03:48:12;;;;;;;6.07;5.40;;;19.70;47.00;;;;;;4956583;28;20050;-61
2021/12/06 03:50:38;;;;;;;5.65;5.15;;;19.80;47.00;;;;;;4971134;28;20049;-60
2021/12/06 03:53:04;;;;;;;5.82;5.32;;;19.80;47.00;;;;;;4950630;28;20129;-60
2021/12/06 03:55:29;;;;;;;5.35;4.85;;;19.70;46.90;;;;;;4973201;28;20126;-59
2021/12/06 03:57:55;;;;;;;7.07;5.50;;;19.80;46.90;;;;;;4971934;28;20137;-61
2021/12/06 04:00:21;;;;;;;6.72;5.53;;;19.70;46.90;;;;;;4950576;28;20112;-60
2021/12/06 04:02:47;;;;;;;6.55;5.78;;;19.70;46.90;;;;;;4971498;28;20517;-59
2021/12/06 04:05:13;;;;;;;6.20;5.60;;;19.80;46.90;;;;;;4952506;28;20507;-60
2021/12/06 04:07:39;;;;;;;6.18;5.30;;;19.70;46.80;;;;;;4967959;28;20054;-59
2021/12/06 04:10:08;;;;;;;5.75;5.20;;;19.70;46.80;;;;;;4952166;28;20060;-58
2021/12/06 04:12:34;;;;;;;5.97;5.25;;;19.70;46.80;;;;;;4969256;28;20061;-59
2021/12/06 04:15:00;;;;;;;5.57;4.97;;;19.70;46.80;;;;;;4953005;28;20387;-59
2021/12/06 04:17:26;;;;;;;6.05;5.45;;;19.70;46.80;;;;;;4971619;28;20046;-60
2021/12/06 04:19:51;;;;;;;6.55;5.43;;;19.70;46.90;;;;;;4952817;28;20047;-59
2021/12/06 04:22:19;;;;;;;5.65;5.10;;;19.70;46.80;;;;;;4967418;28;20522;-57
2021/12/06 04:24:46;;;;;;;6.60;5.90;;;19.70;46.80;;;;;;4954875;28;20540;-60
2021/12/06 04:27:15;;;;;;;6.65;5.95;;;19.60;46.70;;;;;;4968920;28;20050;-57
2021/12/06 04:29:45;;;;;;;5.97;5.38;;;19.70;46.80;;;;;;4953377;28;20042;-58
2021/12/06 04:32:11;;;;;;;6.18;5.57;;;19.60;47.40;;;;;;4971149;28;20061;-60
2021/12/06 04:34:37;;;;;;;6.00;5.40;;;19.60;46.70;;;;;;4972151;28;20046;-59
2021/12/06 04:37:03;;;;;;;6.88;5.55;;;19.60;46.70;;;;;;4947479;28;20051;-56
2021/12/06 04:39:29;;;;;;;8.25;5.70;;;19.60;46.60;;;;;;4971400;28;20050;-60
2021/12/06 04:41:54;;;;;;;7.65;5.30;;;19.60;46.70;;;;;;4951697;28;20048;-60
2021/12/06 04:44:20;;;;;;;8.55;6.00;;;19.60;46.70;;;;;;4968549;28;20053;-58
2021/12/06 04:46:47;;;;;;;8.73;5.85;;;19.60;46.60;;;;;;4952789;28;20058;-60
2021/12/06 04:49:13;;;;;;;5.95;5.35;;;19.60;46.70;;;;;;4966844;28;20430;-60
2021/12/06 04:51:42;;;;;;;7.70;5.60;;;19.60;47.30;;;;;;4951195;28;20046;-60
2021/12/06 04:54:09;;;;;;;7.82;5.47;;;19.60;46.60;;;;;;4971096;28;20066;-56
2021/12/06 04:56:45;;;;;;;6.55;5.95;;;19.60;46.60;;;;;;4951655;28;20043;-60
2021/12/06 04:59:10;;;;;;;7.03;6.05;;;19.60;46.60;;;;;;4970575;28;20046;-62
2021/12/06 05:01:37;;;;;;;7.00;6.30;;;19.60;46.70;;;;;;4949767;28;20070;-59
2021/12/06 05:04:09;;;;;;;6.97;5.82;;;19.60;46.60;;;;;;4966107;28;20095;-61
2021/12/06 05:06:37;;;;;;;6.80;6.10;;;19.60;46.60;;;;;;4948242;28;20051;-60
2021/12/06 05:09:19;;;;;;;7.93;6.18;;;19.60;46.60;;;;;;4970610;28;20054;-61
2021/12/06 05:11:45;;;;;;;6.80;6.00;;;19.50;46.50;;;;;;4950620;28;20798;-58
2021/12/06 05:14:12;;;;;;;9.15;6.50;;;19.60;46.70;;;;;;4965820;28;20814;-59
2021/12/06 05:16:37;;;;;;;7.05;6.00;;;19.50;46.50;;;;;;4970087;28;20056;-59
2021/12/06 05:19:05;;;;;;;7.22;5.93;;;19.50;46.50;;;;;;4948337;28;20047;-60
2021/12/06 05:21:32;;;;;;;8.63;6.60;;;19.50;46.60;;;;;;4965866;28;20680;-56
2021/12/06 05:23:58;;;;;;;7.15;6.10;;;19.50;46.50;;;;;;4949421;28;20441;-61
2021/12/06 05:26:23;;;;;;;6.93;5.93;;;19.50;46.50;;;;;;4970319;28;20054;-60
2021/12/06 05:28:52;;;;;;;7.82;6.53;;;19.50;46.60;;;;;;4948928;28;20043;-60
2021/12/06 05:31:20;;;;;;;7.47;6.47;;;19.50;46.50;;;;;;4966545;28;20054;-61
2021/12/06 05:33:51;;;;;;;8.27;6.97;;;19.50;46.40;;;;;;4948822;28;20051;-58
2021/12/06 05:36:17;;;;;;;8.50;6.88;;;19.50;46.40;;;;;;4971659;28;20045;-59
2021/12/06 05:38:43;;;;;;;7.60;6.45;;;19.50;46.50;;;;;;4950255;28;20034;-61
2021/12/06 05:41:08;;;;;;;8.63;7.13;;;19.50;46.50;;;;;;4967871;28;20133;-60
2021/12/06 05:43:34;;;;;;;8.80;6.80;;;19.50;46.50;;;;;;4954439;28;20455;-60
2021/12/06 05:46:00;;;;;;;7.97;6.63;;;19.50;46.40;;;;;;4967286;28;20866;-60
2021/12/06 05:48:29;;;;;;;10.60;7.22;;;19.50;46.40;;;;;;4963596;28;20043;-56
2021/12/06 05:50:55;;;;;;;9.70;7.53;;;19.50;46.40;;;;;;4967487;28;20046;-62
2021/12/06 05:53:21;;;;;;;8.88;7.10;;;19.50;46.50;;;;;;4970613;28;20049;-58
2021/12/06 05:55:48;;;;;;;8.15;6.90;;;19.50;46.40;;;;;;4955443;28;20092;-59
2021/12/06 05:58:16;;;;;;;8.13;6.65;;;19.50;46.50;;;;;;4967155;28;20138;-60
2021/12/06 06:00:43;;;;;;;9.00;7.18;;;19.50;46.50;;;;;;4948438;28;20597;-59
2021/12/06 06:03:09;;;;;;;8.48;6.40;;;19.60;46.60;;;;;;4973572;28;21052;-60
2021/12/06 06:05:36;;;;;;;7.28;6.45;;;19.60;46.60;;;;;;4954943;28;20057;-61
2021/12/06 06:08:03;;;;;;;8.75;6.82;;;19.60;46.60;;;;;;4971087;28;20046;-59
2021/12/06 06:10:31;;;;;;;9.20;7.38;;;19.60;46.60;;;;;;4953512;28;20194;-61
2021/12/06 06:13:00;;;;;;;9.20;7.57;;;19.60;46.60;;;;;;4971459;28;20678;-58
2021/12/06 06:15:28;;;;;;;8.50;6.97;;;19.60;46.60;;;;;;4947466;28;20537;-59
2021/12/06 06:17:54;;;;;;;9.32;7.45;;;19.60;46.60;;;;;;4971967;28;20858;-60
2021/12/06 06:20:25;;;;;;;8.77;7.60;;;19.60;46.60;;;;;;4955192;28;20161;-61
2021/12/06 06:22:50;;;;;;;9.23;7.53;;;19.70;46.60;;;;;;4973275;28;20042;-56
2021/12/06 06:25:16;;;;;;;7.43;6.68;;;19.70;46.60;;;;;;4953417;28;20042;-57
2021/12/06 06:27:45;;;;;;;8.52;7.43;;;19.70;46.50;;;;;;4967290;28;20054;-62
2021/12/06 06:30:12;;;;;;;9.52;6.88;;;19.70;46.60;;;;;;4970974;28;20046;-58
2021/12/06 06:32:38;;;;;;;7.78;6.80;;;19.70;46.60;;;;;;4951958;28;20050;-62
2021/12/06 06:35:04;;;;;;;8.32;7.10;;;19.70;46.60;;;;;;4966414;28;20057;-61
2021/12/06 06:37:29;;;;;;;8.52;6.72;;;19.70;46.70;;;;;;4954856;28;20043;-60
2021/12/06 06:39:55;;;;;;;8.27;7.03;;;19.70;46.70;;;;;;4974718;28;20900;-61
2021/12/06 06:42:24;;;;;;;9.95;7.43;;;19.70;46.80;;;;;;4949242;28;20462;-61
2021/12/06 06:44:54;;;;;;;8.43;6.95;;;19.70;46.90;;;;;;4973789;28;20053;-61
2021/12/06 06:47:19;;;;;;;9.82;7.90;;;19.80;46.90;;;;;;4954790;28;20046;-61
2021/12/06 06:49:45;;;;;;;7.97;7.00;;;19.80;47.00;;;;;;4973159;28;20570;-58
2021/12/06 06:52:11;;;;;;;11.40;7.35;;;19.80;47.10;;;;;;4957191;28;20901;-61
2021/12/06 06:54:37;;;;;;;9.32;7.07;;;19.80;47.00;;;;;;4972548;28;20542;-61
2021/12/06 06:57:03;;;;;;;9.35;7.25;;;19.90;47.10;;;;;;4953097;28;20105;-60
2021/12/06 06:59:28;;;;;;;8.52;7.13;;;19.90;47.10;;;;;;4970655;28;20734;-65
2021/12/06 07:01:54;;;;;;;9.15;7.57;;;19.90;47.10;;;;;;4958428;28;20070;-65
2021/12/06 07:04:20;;;;;;;10.10;7.65;;;19.90;47.00;;;;;;4971580;28;20073;-62
2021/12/06 07:06:46;;;;;;;10.98;7.75;;;19.90;47.00;;;;;;4975752;28;20085;-62
2021/12/06 07:09:11;;;;;;;12.23;7.03;;;19.90;47.10;;;;;;4952788;28;20706;-61
2021/12/06 07:11:37;;;;;;;12.40;7.63;;;20.00;47.10;;;;;;4953917;28;20042;-61
2021/12/06 07:14:03;;;;;;;11.85;7.55;;;19.90;47.00;;;;;;4954667;28;20189;-62
2021/12/06 07:16:29;;;;;;;8.95;6.97;;;19.90;47.00;;;;;;4971951;28;20130;-60
2021/12/06 07:18:55;;;;;;;8.70;7.30;;;19.90;47.00;;;;;;4954111;28;20050;-59
2021/12/06 07:21:22;;;;;;;8.73;7.15;;;20.00;47.00;;;;;;4972143;28;20534;-63
2021/12/06 07:23:48;;;;;;;9.20;7.18;;;20.00;47.00;;;;;;4950227;28;20077;-60
2021/12/06 07:26:16;;;;;;;8.20;7.38;;;20.00;47.00;;;;;;4973986;28;20054;-61
2021/12/06 07:28:43;;;;;;;9.13;7.57;;;20.00;47.00;;;;;;4951602;28;20110;-61
2021/12/06 07:31:12;;;;;;;7.68;6.70;;;20.00;46.90;;;;;;4973406;28;20061;-60
2021/12/06 07:33:38;;;;;;;8.63;7.05;;;20.00;46.30;;;;;;4953336;28;20457;-60
2021/12/06 07:36:04;;;;;;;9.43;7.35;;;20.00;46.90;;;;;;4972113;28;20054;-58
2021/12/06 07:38:30;;;;;;;8.88;7.30;;;20.00;46.90;;;;;;4950229;28;20046;-60
2021/12/06 07:40:57;;;;;;;8.18;7.38;;;20.00;46.90;;;;;;4972164;28;20051;-62
2021/12/06 07:43:23;;;;;;;10.18;8.13;;;20.00;46.80;;;;;;4972794;28;20046;-62
2021/12/06 07:45:49;;;;;;;7.95;6.93;;;20.10;46.80;;;;;;4953347;28;20053;-61
2021/12/06 07:48:15;;;;;;;9.02;7.53;;;20.10;46.80;;;;;;4973135;28;20043;-58
2021/12/06 07:50:41;;;;;;;9.55;7.93;;;20.10;46.70;;;;;;4951956;28;20050;-60
2021/12/06 07:53:07;;;;;;;9.45;7.60;;;20.10;46.70;;;;;;4969810;28;20422;-60
2021/12/06 07:55:34;;;;;;;8.82;7.90;;;20.10;46.60;;;;;;4951737;28;20050;-60
2021/12/06 07:58:02;;;;;;;9.77;8.38;;;20.10;46.60;;;;;;4973307;28;20050;-60
2021/12/06 08:00:30;;;;;;;9.73;8.70;;;20.10;46.60;;;;;;4954335;28;20054;-60
2021/12/06 08:02:57;;;;;;;10.73;8.80;;;20.10;46.50;;;;;;4971763;28;20081;-60
2021/12/06 08:05:30;;;;;;;10.23;9.23;;;20.10;46.60;;;;;;4954448;28;20051;-60
2021/12/06 08:08:06;;;;;;;13.02;9.43;;;20.20;46.70;;;;;;4965018;28;20053;-61
2021/12/06 08:10:35;;;;;;;9.85;8.85;;;20.20;46.60;;;;;;4925275;28;20121;-61
2021/12/06 08:13:02;;;;;;;11.18;9.70;;;20.20;46.60;;;;;;4972102;28;20517;-61
2021/12/06 08:15:27;;;;;;;13.07;10.10;;;20.20;46.70;;;;;;4936407;28;20101;-58
2021/12/06 08:17:54;;;;;;;11.15;9.57;;;20.20;46.50;;;;;;4970949;28;20611;-60
2021/12/06 08:20:20;;;;;;;11.43;9.70;;;20.20;46.50;;;;;;4952204;28;20085;-59
2021/12/06 08:22:45;;;;;;;12.13;10.00;;;20.20;46.50;;;;;;4939798;28;20058;-59
2021/12/06 08:25:14;;;;;;;12.25;10.05;;;20.30;46.50;;;;;;4970609;28;20046;-59
2021/12/06 08:27:40;;;;;;;13.20;10.98;;;20.30;46.50;;;;;;4954457;28;20046;-59
2021/12/06 08:30:07;;;;;;;11.85;10.63;;;20.30;46.50;;;;;;4971770;28;20050;-60
2021/12/06 08:32:33;;;;;;;12.63;10.48;;;20.30;46.50;;;;;;4950078;28;20152;-60
2021/12/06 08:34:59;;;;;;;12.73;10.68;;;20.30;46.50;;;;;;4966832;28;20046;-59
2021/12/06 08:37:26;;;;;;;11.10;9.90;;;20.30;46.50;;;;;;4955273;28;20077;-60
2021/12/06 08:39:52;;;;;;;12.38;10.30;;;20.30;46.50;;;;;;4969646;28;20046;-60
2021/12/06 08:42:18;;;;;;;11.15;9.95;;;20.40;46.40;;;;;;4947172;28;20537;-59
2021/12/06 08:44:44;;;;;;;11.35;9.60;;;20.30;46.40;;;;;;4968276;28;20050;-59
2021/12/06 08:47:09;;;;;;;10.82;9.05;;;20.30;46.40;;;;;;4937242;28;20059;-58
2021/12/06 08:49:35;;;;;;;11.55;9.18;;;20.40;46.50;;;;;;4966624;28;20081;-59
2021/12/06 08:52:02;;;;;;;9.95;8.95;;;20.40;46.50;;;;;;4955321;28;20081;-58
2021/12/06 08:54:29;;;;;;;11.07;9.40;;;20.40;46.50;;;;;;4967510;28;20050;-60
2021/12/06 08:56:57;;;;;;;10.18;8.40;;;20.40;46.50;;;;;;4969357;28;20117;-59
2021/12/06 08:59:23;;;;;;;11.48;9.55;;;20.40;46.50;;;;;;4949454;28;20588;-60
2021/12/06 09:01:49;;;;;;;9.82;8.48;;;20.40;46.50;;;;;;4967898;28;20058;-60
2021/12/06 09:04:15;;;;;;;9.75;8.82;;;20.40;46.60;;;;;;4950033;28;20104;-60
2021/12/06 09:06:46;;;;;;;11.07;8.73;;;20.50;46.70;;;;;;4969983;28;20043;-60
2021/12/06 09:09:12;;;;;;;;;;;20.50;46.60;;;;;;4951618;28;20515;-60
2021/12/06 09:11:41;;;;;;;9.02;8.13;;;20.50;46.50;;;;;;4969714;28;20427;-60
2021/12/06 09:14:08;;;;;;;8.77;7.88;;;20.50;46.70;;;;;;4949643;28;20080;-60
2021/12/06 09:16:36;;;;;;;9.05;8.02;;;20.50;46.60;;;;;;4966049;28;20692;-60
2021/12/06 09:19:03;;;;;;;8.98;8.10;;;20.50;46.60;;;;;;4962279;28;20038;-58
2021/12/06 09:21:29;;;;;;;8.85;7.95;;;20.50;46.50;;;;;;4970515;28;20803;-58
2021/12/06 09:23:58;;;;;;;9.48;7.43;;;20.50;46.50;;;;;;4942586;28;20173;-58
2021/12/06 09:26:24;;;;;;;9.05;7.72;;;20.50;46.50;;;;;;4969854;28;20053;-60
2021/12/06 09:28:49;;;;;;;11.43;8.18;;;20.50;46.60;;;;;;4968029;28;20034;-58
2021/12/06 09:31:18;;;;;;;9.73;7.15;;;20.50;47.40;;;;;;4946067;28;20100;-62
2021/12/06 09:33:43;;;;;;;8.15;7.35;;;20.50;46.90;;;;;;4970857;28;20501;-59
2021/12/06 09:36:10;;;;;;;7.82;7.03;;;20.50;47.00;;;;;;4953523;28;20116;-58
2021/12/06 09:38:39;;;;;;;7.82;6.78;;;20.50;47.10;;;;;;4971752;28;20065;-60
2021/12/06 09:41:13;;;;;;;7.75;6.70;;;20.60;47.20;;;;;;4949379;28;20414;-60
2021/12/06 09:43:41;;;;;;;8.73;7.18;;;20.60;47.30;;;;;;4974272;28;20058;-59
2021/12/06 09:46:10;;;;;;;7.20;5.93;;;20.60;47.50;;;;;;4950965;28;20046;-60
2021/12/06 09:48:37;;;;;;;8.48;7.30;;;20.60;47.50;;;;;;4976828;28;20070;-59
2021/12/06 09:51:09;;;;;;;7.68;6.93;;;20.70;47.50;;;;;;4955448;28;20517;-60
2021/12/06 09:53:37;;;;;;;7.40;6.70;;;20.70;47.40;;;;;;4976846;28;20938;-61
2021/12/06 09:56:07;;;;;;;7.10;6.43;;;20.60;47.40;;;;;;4955647;28;20046;-60
2021/12/06 09:58:34;;;;;;;7.03;6.33;;;20.60;47.20;;;;;;4972134;28;20113;-60
2021/12/06 10:01:08;;;;;;;7.18;6.35;;;20.60;47.30;;;;;;4955839;28;20301;-60
2021/12/06 10:03:36;;;;;;;7.50;6.60;;;20.60;47.20;;;;;;4970720;28;20055;-58
2021/12/06 10:06:04;;;;;;;8.00;6.28;;;20.60;47.30;;;;;;4950818;28;20663;-60
2021/12/06 10:08:34;;;;;;;7.43;6.13;;;20.60;47.30;;;;;;4970417;28;20054;-59
2021/12/06 10:11:04;;;;;;;7.78;6.70;;;20.60;47.30;;;;;;4965009;28;20383;-57
2021/12/06 10:13:30;;;;;;;;;;;20.60;47.30;;;;;;4959775;28;20043;-60
2021/12/06 10:15:56;;;;;;;6.82;6.13;;;20.60;47.30;;;;;;4973994;28;20279;-58
2021/12/06 10:18:22;;;;;;;6.65;5.97;;;20.60;47.40;;;;;;4942261;28;20457;-60
2021/12/06 10:20:49;;;;;;;7.53;6.32;;;20.70;47.40;;;;;;4973542;28;20207;-61
2021/12/06 10:23:16;;;;;;;7.20;6.45;;;20.70;47.40;;;;;;4939519;28;20494;-59
2021/12/06 10:25:46;;;;;;;6.32;5.72;;;20.70;47.40;;;;;;4971902;28;20043;-60
2021/12/06 10:28:14;;;;;;;8.98;6.45;;;20.70;47.40;;;;;;4950758;28;20046;-61
2021/12/06 10:30:53;;;;;;;7.05;6.22;;;20.60;47.30;;;;;;4971301;28;20390;-61
2021/12/06 10:33:26;;;;;;;7.28;6.10;;;20.60;47.20;;;;;;4954435;28;20046;-62
2021/12/06 10:36:03;;;;;;;9.13;6.10;;;20.60;47.20;;;;;;4979308;28;20152;-59
2021/12/06 10:38:36;;;;;;;7.20;6.05;;;20.70;47.20;;;;;;4952802;28;20681;-58
2021/12/06 10:41:12;;;;;;;7.85;6.32;;;20.60;47.10;;;;;;4970435;28;20097;-59
2021/12/06 10:43:39;;;;;;;7.90;6.07;;;20.60;47.00;;;;;;4952120;28;20046;-60
2021/12/06 10:46:07;;;;;;;7.80;6.65;;;20.60;46.90;;;;;;4974298;28;20089;-59
2021/12/06 10:48:38;;;;;;;7.45;6.32;;;20.60;46.90;;;;;;4954680;28;20516;-59
2021/12/06 10:51:11;;;;;;;6.60;6.00;;;20.60;46.80;;;;;;4970531;28;20785;-58
2021/12/06 10:53:46;;;;;;;6.85;6.15;;;20.60;46.90;;;;;;4952645;28;20054;-59
2021/12/06 10:56:20;;;;;;;8.05;6.28;;;20.60;46.80;;;;;;4968422;28;20046;-59
2021/12/06 10:58:51;;;;;;;7.47;6.50;;;20.60;46.70;;;;;;4953690;28;20073;-57
2021/12/06 11:01:21;;;;;;;7.65;6.20;;;20.60;46.80;;;;;;4971270;28;20497;-59
2021/12/06 11:03:53;;;;;;;6.50;5.85;;;20.60;46.80;;;;;;4952875;28;20690;-59
2021/12/06 11:06:26;;;;;;;6.80;5.85;;;20.60;46.70;;;;;;4972127;28;20047;-58
2021/12/06 11:08:56;;;;;;;7.97;5.95;;;20.60;46.60;;;;;;4949002;28;20042;-59
2021/12/06 11:11:29;;;;;;;6.97;6.28;;;20.60;46.70;;;;;;4970637;28;20498;-58
2021/12/06 11:13:59;;;;;;;6.93;5.32;;;20.60;46.70;;;;;;4953123;28;20042;-57
2021/12/06 11:16:28;;;;;;;7.80;5.75;;;20.60;46.80;;;;;;4976685;28;20220;-60
2021/12/06 11:18:57;;;;;;;7.03;6.13;;;20.60;46.70;;;;;;4972586;28;20116;-59
2021/12/06 11:21:42;;;;;;;8.15;6.10;;;20.60;46.70;;;;;;4953787;28;20053;-60
2021/12/06 11:24:15;;;;;;;7.95;5.50;;;20.60;46.70;;;;;;4973360;28;20108;-58
2021/12/06 11:26:46;;;;;;;6.45;5.78;;;20.60;46.70;;;;;;4950337;28;20457;-60
2021/12/06 11:29:38;;;;;;;7.65;6.05;;;20.60;46.80;;;;;;4972327;28;20205;-60
2021/12/06 11:32:11;;;;;;;6.07;5.47;;;20.60;46.70;;;;;;4968833;28;20046;-59
2021/12/06 11:34:44;;;;;;;7.93;5.93;;;20.60;46.80;;;;;;4970530;28;20046;-59
2021/12/06 11:37:23;;;;;;;6.93;5.60;;;20.60;46.80;;;;;;4951782;28;20976;-59
2021/12/06 11:40:17;;;;;;;7.00;5.57;;;20.60;46.80;;;;;;4971113;28;20050;-57
2021/12/06 11:43:08;;;;;;;6.95;5.50;;;20.60;46.90;;;;;;4973440;28;20042;-60
2021/12/06 11:45:40;;;;;;;7.07;5.32;;;20.60;46.90;;;;;;4949959;28;20050;-59
2021/12/06 11:48:08;;;;;;;6.88;5.78;;;20.60;47.00;;;;;;4959419;28;20622;-58
2021/12/06 11:50:39;;;;;;;7.00;5.60;;;20.50;46.90;;;;;;4962959;28;20054;-57
2021/12/06 11:53:06;;;;;;;9.07;5.70;;;20.60;46.90;;;;;;4966804;28;20054;-59
2021/12/06 11:55:33;;;;;;;6.25;5.35;;;20.60;46.90;;;;;;4971405;28;20569;-60
2021/12/06 11:57:58;;;;;;;6.10;5.60;;;20.60;46.90;;;;;;4950578;28;20640;-59
2021/12/06 12:00:25;;;;;;;6.55;5.93;;;20.50;46.80;;;;;;4971610;28;20187;-58
2021/12/06 12:02:56;;;;;;;6.53;5.80;;;20.50;46.70;;;;;;4953530;28;20034;-59
2021/12/06 12:05:32;;;;;;;7.50;5.85;;;20.50;46.70;;;;;;4969889;28;20065;-59
2021/12/06 12:07:58;;;;;;;5.90;5.30;;;20.60;46.80;;;;;;4949029;28;20093;-59
2021/12/06 12:10:38;;;;;;;6.15;5.22;;;20.50;46.70;;;;;;4971045;28;20138;-59
2021/12/06 12:13:06;;;;;;;7.30;6.40;;;20.50;46.70;;;;;;4945994;28;20046;-59
2021/12/06 12:15:32;;;;;;;6.90;6.20;;;20.50;46.70;;;;;;4972172;28;20047;-57
2021/12/06 12:17:59;;;;;;;7.18;6.13;;;20.50;46.60;;;;;;4950183;28;20070;-59
2021/12/06 12:20:26;;;;;;;7.63;6.43;;;20.50;46.60;;;;;;4967450;28;20080;-59
2021/12/06 12:22:54;;;;;;;7.13;6.28;;;20.50;46.50;;;;;;4952136;28;20042;-60
2021/12/06 12:25:34;;;;;;;8.30;6.50;;;20.50;46.50;;;;;;4972771;28;20042;-59
2021/12/06 12:30:38;;;;;;;7.55;6.57;;;20.50;46.40;;;;;;4968332;28;20498;-59
2021/12/06 12:33:07;;;;;;;9.25;7.18;;;20.50;46.40;;;;;;4950261;28;20034;-59
2021/12/06 12:35:36;;;;;;;10.25;6.90;;;20.50;46.40;;;;;;4967020;28;20054;-58
2021/12/06 12:38:03;;;;;;;8.27;7.47;;;20.50;46.50;;;;;;4952064;28;20054;-58
2021/12/06 12:40:41;;;;;;;8.05;6.82;;;20.50;46.50;;;;;;4973069;28;20054;-59
2021/12/06 12:43:12;;;;;;;8.63;7.28;;;20.50;46.40;;;;;;4952012;28;20064;-57
2021/12/06 12:45:44;;;;;;;8.45;7.07;;;20.50;46.40;;;;;;4973403;28;20678;-58
2021/12/06 12:48:11;;;;;;;9.43;7.57;;;20.50;46.40;;;;;;4966340;28;20062;-59
2021/12/06 12:50:37;;;;;;;10.07;7.80;;;20.50;46.40;;;;;;4949733;28;20042;-57
2021/12/06 12:53:09;;;;;;;10.73;8.20;;;20.40;46.20;;;;;;4970159;28;20500;-59
2021/12/06 12:55:53;;;;;;;9.55;8.13;;;20.50;46.30;;;;;;4948326;28;20061;-57
2021/12/06 12:58:23;;;;;;;9.70;7.95;;;20.50;46.10;;;;;;4973161;28;20486;-59
2021/12/06 13:01:03;;;;;;;8.77;7.88;;;20.50;46.30;;;;;;4948885;28;20046;-59
2021/12/06 13:03:33;;;;;;;9.80;8.38;;;20.50;46.10;;;;;;4969802;28;20085;-58
2021/12/06 13:06:21;;;;;;;9.88;7.88;;;20.50;46.20;;;;;;4948975;28;20135;-59
2021/12/06 13:08:49;;;;;;;9.90;8.77;;;20.50;46.00;;;;;;4971152;28;20836;-59